sensor_id;sensor_type;location;lat;lon;timestamp;temperature;humidity
14061;DHT22;7105;43.616;1.434;2022-07-23T00:00:11;22.90;99.90
14061;DHT22;7105;43.616;1.434;2022-07-23T00:02:37;23.00;99.90
14061;DHT22;7105;43.616;1.434;2022-07-23T00:05:03;22.90;99.90
14061;DHT22;7105;43.616;1.434;2022-07-23T00:07:29;22.80;99.90
14061;DHT22;7105;43.616;1.434;2022-07-23T00:09:54;22.80;99.90
14061;DHT22;7105;43.616;1.434;2022-07-23T00:12:20;22.80;99.90
14061;DHT22;7105;43.616;1.434;2022-07-23T00:14:46;22.70;99.90
14061;DHT22;7105;43.616;1.434;2022-07-23T00:17:12;22.80;99.90
14061;DHT22;7105;43.616;1.434;2022-07-23T00:19:38;22.70;99.90
14061;DHT22;7105;43.616;1.434;2022-07-23T00:22:03;22.50;99.90
14061;DHT22;7105;43.616;1.434;2022-07-23T00:24:29;22.70;99.90
14061;DHT22;7105;43.616;1.434;2022-07-23T00:26:55;22.80;99.90
14061;DHT22;7105;43.616;1.434;2022-07-23T00:29:20;22.80;99.90
14061;DHT22;7105;43.616;1.434;2022-07-23T00:31:46;22.70;99.90
14061;DHT22;7105;43.616;1.434;2022-07-23T00:34:12;22.70;99.90
14061;DHT22;7105;43.616;1.434;2022-07-23T00:36:37;22.70;99.90
14061;DHT22;7105;43.616;1.434;2022-07-23T00:39:03;22.30;99.90
14061;DHT22;7105;43.616;1.434;2022-07-23T00:41:29;22.20;99.90
14061;DHT22;7105;43.616;1.434;2022-07-23T00:43:55;21.90;99.90
14061;DHT22;7105;43.616;1.434;2022-07-23T00:46:22;21.90;99.90
14061;DHT22;7105;43.616;1.434;2022-07-23T00:48:48;22.00;99.90
14061;DHT22;7105;43.616;1.434;2022-07-23T00:51:17;22.00;99.90
14061;DHT22;7105;43.616;1.434;2022-07-23T00:53:44;22.00;99.90
14061;DHT22;7105;43.616;1.434;2022-07-23T00:56:10;22.00;99.90
14061;DHT22;7105;43.616;1.434;2022-07-23T00:58:36;22.00;99.90
14061;DHT22;7105;43.616;1.434;2022-07-23T01:01:03;22.00;99.90
14061;DHT22;7105;43.616;1.434;2022-07-23T01:03:29;22.30;99.90
14061;DHT22;7105;43.616;1.434;2022-07-23T01:05:55;22.10;99.90
14061;DHT22;7105;43.616;1.434;2022-07-23T01:08:22;21.90;99.90
14061;DHT22;7105;43.616;1.434;2022-07-23T01:10:49;22.00;99.90
14061;DHT22;7105;43.616;1.434;2022-07-23T01:13:18;21.90;99.90
14061;DHT22;7105;43.616;1.434;2022-07-23T01:15:43;22.00;99.90
14061;DHT22;7105;43.616;1.434;2022-07-23T01:18:09;21.90;99.90
14061;DHT22;7105;43.616;1.434;2022-07-23T01:20:36;22.10;99.90
14061;DHT22;7105;43.616;1.434;2022-07-23T01:23:01;21.90;99.90
14061;DHT22;7105;43.616;1.434;2022-07-23T01:25:27;21.90;99.90
14061;DHT22;7105;43.616;1.434;2022-07-23T01:27:53;21.80;99.90
14061;DHT22;7105;43.616;1.434;2022-07-23T01:30:19;21.80;99.90
14061;DHT22;7105;43.616;1.434;2022-07-23T01:32:45;21.70;99.90
14061;DHT22;7105;43.616;1.434;2022-07-23T01:35:11;21.80;99.90
14061;DHT22;7105;43.616;1.434;2022-07-23T01:37:38;21.70;99.90
14061;DHT22;7105;43.616;1.434;2022-07-23T01:40:04;21.70;99.90
14061;DHT22;7105;43.616;1.434;2022-07-23T01:42:30;21.70;99.90
14061;DHT22;7105;43.616;1.434;2022-07-23T01:44:56;21.60;99.90
14061;DHT22;7105;43.616;1.434;2022-07-23T01:47:22;21.80;99.90
14061;DHT22;7105;43.616;1.434;2022-07-23T01:49:47;21.70;99.90
14061;DHT22;7105;43.616;1.434;2022-07-23T01:52:13;21.80;99.90
14061;DHT22;7105;43.616;1.434;2022-07-23T01:54:39;21.60;99.90
14061;DHT22;7105;43.616;1.434;2022-07-23T01:57:05;21.70;99.90
14061;DHT22;7105;43.616;1.434;2022-07-23T01:59:31;21.80;99.90
14061;DHT22;7105;43.616;1.434;2022-07-23T02:01:57;21.60;99.90
14061;DHT22;7105;43.616;1.434;2022-07-23T02:04:24;21.60;99.90
14061;DHT22;7105;43.616;1.434;2022-07-23T02:06:50;21.60;99.90
14061;DHT22;7105;43.616;1.434;2022-07-23T02:09:16;21.50;99.90
14061;DHT22;7105;43.616;1.434;2022-07-23T02:11:42;21.60;99.90
14061;DHT22;7105;43.616;1.434;2022-07-23T02:14:08;21.60;99.90
14061;DHT22;7105;43.616;1.434;2022-07-23T02:16:34;21.50;99.90
14061;DHT22;7105;43.616;1.434;2022-07-23T02:19:00;21.40;99.90
14061;DHT22;7105;43.616;1.434;2022-07-23T02:21:26;21.60;99.90
14061;DHT22;7105;43.616;1.434;2022-07-23T02:23:51;21.60;99.90
14061;DHT22;7105;43.616;1.434;2022-07-23T02:26:17;21.50;99.90
14061;DHT22;7105;43.616;1.434;2022-07-23T02:28:43;21.40;99.90
14061;DHT22;7105;43.616;1.434;2022-07-23T02:31:08;21.30;99.90
14061;DHT22;7105;43.616;1.434;2022-07-23T02:33:35;21.40;99.90
14061;DHT22;7105;43.616;1.434;2022-07-23T02:36:01;21.50;99.90
14061;DHT22;7105;43.616;1.434;2022-07-23T02:38:26;21.30;99.90
14061;DHT22;7105;43.616;1.434;2022-07-23T02:40:52;21.20;99.90
14061;DHT22;7105;43.616;1.434;2022-07-23T02:43:18;21.10;99.90
14061;DHT22;7105;43.616;1.434;2022-07-23T02:45:43;21.00;99.90
14061;DHT22;7105;43.616;1.434;2022-07-23T02:48:09;21.10;99.90
14061;DHT22;7105;43.616;1.434;2022-07-23T02:50:38;21.10;99.90
14061;DHT22;7105;43.616;1.434;2022-07-23T02:53:03;21.40;99.90
14061;DHT22;7105;43.616;1.434;2022-07-23T02:55:29;21.40;99.90
14061;DHT22;7105;43.616;1.434;2022-07-23T02:57:55;21.30;99.90
14061;DHT22;7105;43.616;1.434;2022-07-23T03:00:21;21.30;99.90
14061;DHT22;7105;43.616;1.434;2022-07-23T03:02:46;21.10;99.90
14061;DHT22;7105;43.616;1.434;2022-07-23T03:05:12;21.20;99.90
14061;DHT22;7105;43.616;1.434;2022-07-23T03:07:38;21.30;99.90
14061;DHT22;7105;43.616;1.434;2022-07-23T03:10:03;21.00;99.90
14061;DHT22;7105;43.616;1.434;2022-07-23T03:12:29;20.90;99.90
14061;DHT22;7105;43.616;1.434;2022-07-23T03:14:55;20.80;99.90
14061;DHT22;7105;43.616;1.434;2022-07-23T03:17:20;20.90;99.90
14061;DHT22;7105;43.616;1.434;2022-07-23T03:19:46;21.00;99.90
14061;DHT22;7105;43.616;1.434;2022-07-23T03:22:12;21.10;99.90
14061;DHT22;7105;43.616;1.434;2022-07-23T03:24:37;21.10;99.90
14061;DHT22;7105;43.616;1.434;2022-07-23T03:27:23;21.10;99.90
14061;DHT22;7105;43.616;1.434;2022-07-23T03:29:50;21.00;99.90
14061;DHT22;7105;43.616;1.434;2022-07-23T03:32:16;21.00;99.90
14061;DHT22;7105;43.616;1.434;2022-07-23T03:34:41;21.20;99.90
14061;DHT22;7105;43.616;1.434;2022-07-23T03:37:07;21.10;99.90
14061;DHT22;7105;43.616;1.434;2022-07-23T03:39:33;21.20;99.90
14061;DHT22;7105;43.616;1.434;2022-07-23T03:41:58;21.10;99.90
14061;DHT22;7105;43.616;1.434;2022-07-23T03:44:24;21.00;99.90
14061;DHT22;7105;43.616;1.434;2022-07-23T03:46:51;21.10;99.90
14061;DHT22;7105;43.616;1.434;2022-07-23T03:49:17;21.00;99.90
14061;DHT22;7105;43.616;1.434;2022-07-23T03:51:43;20.80;99.90
14061;DHT22;7105;43.616;1.434;2022-07-23T03:54:09;20.60;99.90
14061;DHT22;7105;43.616;1.434;2022-07-23T03:56:35;20.60;99.90
14061;DHT22;7105;43.616;1.434;2022-07-23T03:59:01;20.70;99.90
14061;DHT22;7105;43.616;1.434;2022-07-23T04:01:26;20.50;99.90
14061;DHT22;7105;43.616;1.434;2022-07-23T04:03:52;20.60;99.90
14061;DHT22;7105;43.616;1.434;2022-07-23T04:06:18;20.50;99.90
14061;DHT22;7105;43.616;1.434;2022-07-23T04:08:43;20.50;99.90
14061;DHT22;7105;43.616;1.434;2022-07-23T04:11:09;20.50;99.90
14061;DHT22;7105;43.616;1.434;2022-07-23T04:13:35;20.40;99.90
14061;DHT22;7105;43.616;1.434;2022-07-23T04:16:00;20.60;99.90
14061;DHT22;7105;43.616;1.434;2022-07-23T04:18:26;20.70;99.90
14061;DHT22;7105;43.616;1.434;2022-07-23T04:20:52;20.60;99.90
14061;DHT22;7105;43.616;1.434;2022-07-23T04:23:18;20.60;99.90
14061;DHT22;7105;43.616;1.434;2022-07-23T04:25:43;20.60;99.90
14061;DHT22;7105;43.616;1.434;2022-07-23T04:28:09;20.50;99.90
14061;DHT22;7105;43.616;1.434;2022-07-23T04:30:35;20.30;99.90
14061;DHT22;7105;43.616;1.434;2022-07-23T04:33:01;20.30;99.90
14061;DHT22;7105;43.616;1.434;2022-07-23T04:35:26;20.40;99.90
14061;DHT22;7105;43.616;1.434;2022-07-23T04:37:52;20.10;99.90
14061;DHT22;7105;43.616;1.434;2022-07-23T04:40:18;20.00;99.90
14061;DHT22;7105;43.616;1.434;2022-07-23T04:42:43;20.20;99.90
14061;DHT22;7105;43.616;1.434;2022-07-23T04:45:09;20.20;99.90
14061;DHT22;7105;43.616;1.434;2022-07-23T04:47:35;20.30;99.90
14061;DHT22;7105;43.616;1.434;2022-07-23T04:50:00;20.40;99.90
14061;DHT22;7105;43.616;1.434;2022-07-23T04:52:26;20.30;99.90
14061;DHT22;7105;43.616;1.434;2022-07-23T04:54:52;20.30;99.90
14061;DHT22;7105;43.616;1.434;2022-07-23T04:57:17;20.40;99.90
14061;DHT22;7105;43.616;1.434;2022-07-23T04:59:43;20.30;99.90
14061;DHT22;7105;43.616;1.434;2022-07-23T05:02:09;20.40;99.90
14061;DHT22;7105;43.616;1.434;2022-07-23T05:04:34;20.30;99.90
14061;DHT22;7105;43.616;1.434;2022-07-23T05:07:00;20.40;99.90
14061;DHT22;7105;43.616;1.434;2022-07-23T05:09:26;20.30;99.90
14061;DHT22;7105;43.616;1.434;2022-07-23T05:11:52;20.10;99.90
14061;DHT22;7105;43.616;1.434;2022-07-23T05:14:17;20.10;99.90
14061;DHT22;7105;43.616;1.434;2022-07-23T05:16:43;20.20;99.90
14061;DHT22;7105;43.616;1.434;2022-07-23T05:19:09;20.00;99.90
14061;DHT22;7105;43.616;1.434;2022-07-23T05:21:34;20.30;99.90
14061;DHT22;7105;43.616;1.434;2022-07-23T05:24:00;20.20;99.90
14061;DHT22;7105;43.616;1.434;2022-07-23T05:26:26;20.20;99.90
14061;DHT22;7105;43.616;1.434;2022-07-23T05:28:51;20.00;99.90
14061;DHT22;7105;43.616;1.434;2022-07-23T05:31:17;20.00;99.90
14061;DHT22;7105;43.616;1.434;2022-07-23T05:33:43;20.10;99.90
14061;DHT22;7105;43.616;1.434;2022-07-23T05:36:09;20.20;99.90
14061;DHT22;7105;43.616;1.434;2022-07-23T05:38:36;19.90;99.90
14061;DHT22;7105;43.616;1.434;2022-07-23T05:41:01;19.90;99.90
14061;DHT22;7105;43.616;1.434;2022-07-23T05:43:27;19.90;99.90
14061;DHT22;7105;43.616;1.434;2022-07-23T05:45:53;20.10;99.90
14061;DHT22;7105;43.616;1.434;2022-07-23T05:48:19;20.10;99.90
14061;DHT22;7105;43.616;1.434;2022-07-23T05:50:46;19.90;99.90
14061;DHT22;7105;43.616;1.434;2022-07-23T05:53:12;19.80;99.90
14061;DHT22;7105;43.616;1.434;2022-07-23T05:55:38;19.90;99.90
14061;DHT22;7105;43.616;1.434;2022-07-23T05:58:03;20.00;99.90
14061;DHT22;7105;43.616;1.434;2022-07-23T06:00:29;20.10;99.90
14061;DHT22;7105;43.616;1.434;2022-07-23T06:02:55;20.10;99.90
14061;DHT22;7105;43.616;1.434;2022-07-23T06:05:21;20.20;99.90
14061;DHT22;7105;43.616;1.434;2022-07-23T06:07:47;20.00;99.90
14061;DHT22;7105;43.616;1.434;2022-07-23T06:10:13;20.40;99.90
14061;DHT22;7105;43.616;1.434;2022-07-23T06:12:38;20.40;99.90
14061;DHT22;7105;43.616;1.434;2022-07-23T06:15:05;20.40;99.90
14061;DHT22;7105;43.616;1.434;2022-07-23T06:17:31;20.70;99.90
14061;DHT22;7105;43.616;1.434;2022-07-23T06:19:56;20.90;99.90
14061;DHT22;7105;43.616;1.434;2022-07-23T06:22:22;20.60;99.90
14061;DHT22;7105;43.616;1.434;2022-07-23T06:24:48;20.60;99.90
14061;DHT22;7105;43.616;1.434;2022-07-23T06:27:14;20.50;99.90
14061;DHT22;7105;43.616;1.434;2022-07-23T06:29:40;20.30;99.90
14061;DHT22;7105;43.616;1.434;2022-07-23T06:32:07;20.20;99.90
14061;DHT22;7105;43.616;1.434;2022-07-23T06:34:33;20.20;99.90
14061;DHT22;7105;43.616;1.434;2022-07-23T06:36:59;20.40;99.90
14061;DHT22;7105;43.616;1.434;2022-07-23T06:39:25;20.50;99.90
14061;DHT22;7105;43.616;1.434;2022-07-23T06:41:50;20.40;99.90
14061;DHT22;7105;43.616;1.434;2022-07-23T06:44:16;20.80;99.90
14061;DHT22;7105;43.616;1.434;2022-07-23T06:46:42;20.90;99.90
14061;DHT22;7105;43.616;1.434;2022-07-23T06:49:08;21.10;99.90
14061;DHT22;7105;43.616;1.434;2022-07-23T06:51:34;21.60;99.90
14061;DHT22;7105;43.616;1.434;2022-07-23T06:54:00;21.20;99.90
14061;DHT22;7105;43.616;1.434;2022-07-23T06:56:27;21.20;99.90
14061;DHT22;7105;43.616;1.434;2022-07-23T06:58:52;21.30;99.90
14061;DHT22;7105;43.616;1.434;2022-07-23T07:01:18;21.40;99.90
14061;DHT22;7105;43.616;1.434;2022-07-23T07:03:44;21.10;99.90
14061;DHT22;7105;43.616;1.434;2022-07-23T07:06:10;21.30;99.90
14061;DHT22;7105;43.616;1.434;2022-07-23T07:08:35;21.40;99.90
14061;DHT22;7105;43.616;1.434;2022-07-23T07:11:01;21.70;99.90
14061;DHT22;7105;43.616;1.434;2022-07-23T07:13:27;21.80;99.90
14061;DHT22;7105;43.616;1.434;2022-07-23T07:15:53;22.30;99.90
14061;DHT22;7105;43.616;1.434;2022-07-23T07:18:18;22.50;99.90
14061;DHT22;7105;43.616;1.434;2022-07-23T07:20:44;22.70;99.90
14061;DHT22;7105;43.616;1.434;2022-07-23T07:23:10;22.30;99.90
14061;DHT22;7105;43.616;1.434;2022-07-23T07:25:35;22.30;99.90
14061;DHT22;7105;43.616;1.434;2022-07-23T07:28:01;22.60;99.90
14061;DHT22;7105;43.616;1.434;2022-07-23T07:30:28;22.30;99.90
14061;DHT22;7105;43.616;1.434;2022-07-23T07:32:53;22.30;99.90
14061;DHT22;7105;43.616;1.434;2022-07-23T07:35:19;22.20;99.90
14061;DHT22;7105;43.616;1.434;2022-07-23T07:37:45;22.10;99.90
14061;DHT22;7105;43.616;1.434;2022-07-23T07:40:10;21.60;99.90
14061;DHT22;7105;43.616;1.434;2022-07-23T07:42:45;22.00;99.90
14061;DHT22;7105;43.616;1.434;2022-07-23T07:45:11;21.90;99.90
14061;DHT22;7105;43.616;1.434;2022-07-23T07:47:36;21.80;99.90
14061;DHT22;7105;43.616;1.434;2022-07-23T07:50:02;22.00;99.90
14061;DHT22;7105;43.616;1.434;2022-07-23T07:52:29;22.20;99.90
14061;DHT22;7105;43.616;1.434;2022-07-23T07:54:55;22.30;99.90
14061;DHT22;7105;43.616;1.434;2022-07-23T07:57:20;22.30;99.90
14061;DHT22;7105;43.616;1.434;2022-07-23T07:59:46;22.70;99.90
14061;DHT22;7105;43.616;1.434;2022-07-23T08:02:11;22.60;99.90
14061;DHT22;7105;43.616;1.434;2022-07-23T08:04:37;23.10;99.90
14061;DHT22;7105;43.616;1.434;2022-07-23T08:07:03;22.90;99.90
14061;DHT22;7105;43.616;1.434;2022-07-23T08:09:29;22.40;99.90
14061;DHT22;7105;43.616;1.434;2022-07-23T08:11:56;22.50;99.90
14061;DHT22;7105;43.616;1.434;2022-07-23T08:14:21;22.20;99.90
14061;DHT22;7105;43.616;1.434;2022-07-23T08:16:47;22.40;99.90
14061;DHT22;7105;43.616;1.434;2022-07-23T08:19:13;22.60;99.90
14061;DHT22;7105;43.616;1.434;2022-07-23T08:21:38;22.00;99.90
14061;DHT22;7105;43.616;1.434;2022-07-23T08:24:04;22.10;99.90
14061;DHT22;7105;43.616;1.434;2022-07-23T08:26:30;22.30;99.90
14061;DHT22;7105;43.616;1.434;2022-07-23T08:28:55;22.40;99.90
14061;DHT22;7105;43.616;1.434;2022-07-23T08:31:22;22.50;99.90
14061;DHT22;7105;43.616;1.434;2022-07-23T08:33:48;22.70;99.90
14061;DHT22;7105;43.616;1.434;2022-07-23T08:36:13;22.70;99.90
14061;DHT22;7105;43.616;1.434;2022-07-23T08:38:39;22.40;99.90
14061;DHT22;7105;43.616;1.434;2022-07-23T08:41:07;22.70;99.90
14061;DHT22;7105;43.616;1.434;2022-07-23T08:43:33;22.60;99.90
14061;DHT22;7105;43.616;1.434;2022-07-23T08:46:02;22.90;99.90
14061;DHT22;7105;43.616;1.434;2022-07-23T08:48:35;22.80;99.90
14061;DHT22;7105;43.616;1.434;2022-07-23T08:51:04;22.80;99.90
14061;DHT22;7105;43.616;1.434;2022-07-23T08:53:31;22.60;99.90
14061;DHT22;7105;43.616;1.434;2022-07-23T08:55:59;22.80;99.90
14061;DHT22;7105;43.616;1.434;2022-07-23T08:58:25;23.20;99.90
14061;DHT22;7105;43.616;1.434;2022-07-23T09:00:51;22.90;99.90
14061;DHT22;7105;43.616;1.434;2022-07-23T09:03:20;23.60;99.90
14061;DHT22;7105;43.616;1.434;2022-07-23T09:05:47;23.60;99.90
14061;DHT22;7105;43.616;1.434;2022-07-23T09:15:50;24.20;99.90
14061;DHT22;7105;43.616;1.434;2022-07-23T09:18:16;24.30;99.90
14061;DHT22;7105;43.616;1.434;2022-07-23T09:20:44;25.10;99.90
14061;DHT22;7105;43.616;1.434;2022-07-23T09:23:10;24.80;99.90
14061;DHT22;7105;43.616;1.434;2022-07-23T09:25:35;25.50;99.90
14061;DHT22;7105;43.616;1.434;2022-07-23T09:28:02;25.60;99.90
14061;DHT22;7105;43.616;1.434;2022-07-23T09:30:32;25.10;99.90
14061;DHT22;7105;43.616;1.434;2022-07-23T09:33:04;25.30;99.90
14061;DHT22;7105;43.616;1.434;2022-07-23T09:35:52;25.50;99.90
14061;DHT22;7105;43.616;1.434;2022-07-23T09:38:19;25.60;99.90
14061;DHT22;7105;43.616;1.434;2022-07-23T09:40:46;25.90;99.90
14061;DHT22;7105;43.616;1.434;2022-07-23T09:43:26;26.00;99.90
14061;DHT22;7105;43.616;1.434;2022-07-23T09:46:22;24.80;99.90
14061;DHT22;7105;43.616;1.434;2022-07-23T09:48:51;24.90;99.90
14061;DHT22;7105;43.616;1.434;2022-07-23T09:51:18;25.50;99.90
14061;DHT22;7105;43.616;1.434;2022-07-23T09:54:03;25.50;99.90
14061;DHT22;7105;43.616;1.434;2022-07-23T09:56:29;25.30;99.90
14061;DHT22;7105;43.616;1.434;2022-07-23T09:58:55;25.60;99.90
14061;DHT22;7105;43.616;1.434;2022-07-23T10:01:32;26.50;99.90
14061;DHT22;7105;43.616;1.434;2022-07-23T10:03:59;26.00;99.90
14061;DHT22;7105;43.616;1.434;2022-07-23T10:06:26;26.10;99.90
14061;DHT22;7105;43.616;1.434;2022-07-23T10:08:53;26.50;99.90
14061;DHT22;7105;43.616;1.434;2022-07-23T10:11:20;26.10;99.90
14061;DHT22;7105;43.616;1.434;2022-07-23T10:13:45;25.80;99.90
14061;DHT22;7105;43.616;1.434;2022-07-23T10:16:18;25.50;99.90
14061;DHT22;7105;43.616;1.434;2022-07-23T10:18:44;25.10;99.90
14061;DHT22;7105;43.616;1.434;2022-07-23T10:21:11;25.40;99.90
14061;DHT22;7105;43.616;1.434;2022-07-23T10:23:45;26.40;99.90
14061;DHT22;7105;43.616;1.434;2022-07-23T10:29:42;26.50;99.90
14061;DHT22;7105;43.616;1.434;2022-07-23T10:32:25;26.10;99.90
14061;DHT22;7105;43.616;1.434;2022-07-23T10:35:18;25.90;99.90
14061;DHT22;7105;43.616;1.434;2022-07-23T10:37:51;25.50;99.90
14061;DHT22;7105;43.616;1.434;2022-07-23T10:40:23;25.90;99.90
14061;DHT22;7105;43.616;1.434;2022-07-23T10:42:52;26.20;99.90
14061;DHT22;7105;43.616;1.434;2022-07-23T10:48:17;25.80;99.90
14061;DHT22;7105;43.616;1.434;2022-07-23T10:50:44;26.30;99.90
14061;DHT22;7105;43.616;1.434;2022-07-23T10:53:53;26.30;99.90
14061;DHT22;7105;43.616;1.434;2022-07-23T10:59:24;26.20;99.90
14061;DHT22;7105;43.616;1.434;2022-07-23T11:01:50;26.50;99.90
14061;DHT22;7105;43.616;1.434;2022-07-23T11:04:16;26.60;99.90
14061;DHT22;7105;43.616;1.434;2022-07-23T11:09:29;26.50;99.90
14061;DHT22;7105;43.616;1.434;2022-07-23T11:17:23;26.20;99.90
14061;DHT22;7105;43.616;1.434;2022-07-23T11:25:10;26.60;99.90
14061;DHT22;7105;43.616;1.434;2022-07-23T11:27:46;26.00;99.90
14061;DHT22;7105;43.616;1.434;2022-07-23T11:33:17;26.30;99.90
14061;DHT22;7105;43.616;1.434;2022-07-23T11:35:45;26.40;99.90
14061;DHT22;7105;43.616;1.434;2022-07-23T11:38:19;26.60;99.90
14061;DHT22;7105;43.616;1.434;2022-07-23T11:40:51;26.50;99.90
14061;DHT22;7105;43.616;1.434;2022-07-23T11:43:17;26.30;99.90
14061;DHT22;7105;43.616;1.434;2022-07-23T11:45:51;25.90;99.90
14061;DHT22;7105;43.616;1.434;2022-07-23T11:48:28;25.60;99.90
14061;DHT22;7105;43.616;1.434;2022-07-23T11:50:57;25.90;99.90
14061;DHT22;7105;43.616;1.434;2022-07-23T11:53:28;26.10;99.90
14061;DHT22;7105;43.616;1.434;2022-07-23T11:55:54;26.40;99.90
14061;DHT22;7105;43.616;1.434;2022-07-23T11:58:21;26.50;99.90
14061;DHT22;7105;43.616;1.434;2022-07-23T12:00:47;26.40;99.90
14061;DHT22;7105;43.616;1.434;2022-07-23T12:03:13;26.30;99.90
14061;DHT22;7105;43.616;1.434;2022-07-23T12:05:39;25.80;99.90
14061;DHT22;7105;43.616;1.434;2022-07-23T12:08:07;25.60;99.90
14061;DHT22;7105;43.616;1.434;2022-07-23T12:10:40;26.00;99.90
14061;DHT22;7105;43.616;1.434;2022-07-23T12:13:09;25.60;99.90
14061;DHT22;7105;43.616;1.434;2022-07-23T12:15:42;26.10;99.90
14061;DHT22;7105;43.616;1.434;2022-07-23T12:18:13;26.20;99.90
14061;DHT22;7105;43.616;1.434;2022-07-23T12:20:41;25.70;99.90
14061;DHT22;7105;43.616;1.434;2022-07-23T12:23:08;26.10;99.90
14061;DHT22;7105;43.616;1.434;2022-07-23T12:25:37;26.20;99.90
14061;DHT22;7105;43.616;1.434;2022-07-23T12:28:07;25.90;99.90
14061;DHT22;7105;43.616;1.434;2022-07-23T12:33:10;25.60;99.90
14061;DHT22;7105;43.616;1.434;2022-07-23T12:35:41;26.10;99.90
14061;DHT22;7105;43.616;1.434;2022-07-23T12:38:10;26.20;99.90
14061;DHT22;7105;43.616;1.434;2022-07-23T12:40:57;26.10;99.90
14061;DHT22;7105;43.616;1.434;2022-07-23T12:43:24;25.80;99.90
14061;DHT22;7105;43.616;1.434;2022-07-23T12:46:07;25.90;99.90
14061;DHT22;7105;43.616;1.434;2022-07-23T12:48:52;25.90;99.90
14061;DHT22;7105;43.616;1.434;2022-07-23T12:51:21;25.70;99.90
14061;DHT22;7105;43.616;1.434;2022-07-23T12:53:52;26.30;99.90
14061;DHT22;7105;43.616;1.434;2022-07-23T12:56:31;26.70;99.90
14061;DHT22;7105;43.616;1.434;2022-07-23T12:59:04;26.30;99.90
14061;DHT22;7105;43.616;1.434;2022-07-23T13:01:40;26.00;99.90
14061;DHT22;7105;43.616;1.434;2022-07-23T13:04:19;26.20;99.90
14061;DHT22;7105;43.616;1.434;2022-07-23T13:06:49;26.20;99.90
14061;DHT22;7105;43.616;1.434;2022-07-23T13:09:23;26.60;99.90
14061;DHT22;7105;43.616;1.434;2022-07-23T13:11:51;26.30;99.90
14061;DHT22;7105;43.616;1.434;2022-07-23T13:14:18;26.60;99.90
14061;DHT22;7105;43.616;1.434;2022-07-23T13:16:44;26.70;99.90
14061;DHT22;7105;43.616;1.434;2022-07-23T13:19:10;26.80;99.90
14061;DHT22;7105;43.616;1.434;2022-07-23T13:21:37;26.20;99.90
14061;DHT22;7105;43.616;1.434;2022-07-23T13:24:03;26.80;99.90
14061;DHT22;7105;43.616;1.434;2022-07-23T13:26:28;26.60;99.90
14061;DHT22;7105;43.616;1.434;2022-07-23T13:28:54;26.90;99.90
14061;DHT22;7105;43.616;1.434;2022-07-23T13:31:20;26.60;99.90
14061;DHT22;7105;43.616;1.434;2022-07-23T13:33:46;26.60;99.90
14061;DHT22;7105;43.616;1.434;2022-07-23T13:36:11;26.60;99.90
14061;DHT22;7105;43.616;1.434;2022-07-23T13:38:37;27.00;99.90
14061;DHT22;7105;43.616;1.434;2022-07-23T13:41:04;27.50;99.90
14061;DHT22;7105;43.616;1.434;2022-07-23T13:43:30;27.20;99.90
14061;DHT22;7105;43.616;1.434;2022-07-23T13:45:56;27.10;99.90
14061;DHT22;7105;43.616;1.434;2022-07-23T13:48:22;27.00;99.90
14061;DHT22;7105;43.616;1.434;2022-07-23T13:50:49;26.80;99.90
14061;DHT22;7105;43.616;1.434;2022-07-23T13:53:17;27.00;99.90
14061;DHT22;7105;43.616;1.434;2022-07-23T13:55:45;27.00;99.90
14061;DHT22;7105;43.616;1.434;2022-07-23T13:58:12;26.80;99.90
14061;DHT22;7105;43.616;1.434;2022-07-23T14:00:40;26.70;99.90
14061;DHT22;7105;43.616;1.434;2022-07-23T14:03:06;26.90;99.90
14061;DHT22;7105;43.616;1.434;2022-07-23T14:05:32;27.10;99.90
14061;DHT22;7105;43.616;1.434;2022-07-23T14:07:58;27.50;99.90
14061;DHT22;7105;43.616;1.434;2022-07-23T14:10:24;27.10;99.90
14061;DHT22;7105;43.616;1.434;2022-07-23T14:12:51;26.80;99.90
14061;DHT22;7105;43.616;1.434;2022-07-23T14:15:23;27.10;99.90
14061;DHT22;7105;43.616;1.434;2022-07-23T14:17:49;26.70;99.90
14061;DHT22;7105;43.616;1.434;2022-07-23T14:20:15;27.20;99.90
14061;DHT22;7105;43.616;1.434;2022-07-23T14:22:41;27.70;99.90
14061;DHT22;7105;43.616;1.434;2022-07-23T14:25:09;27.50;99.90
14061;DHT22;7105;43.616;1.434;2022-07-23T14:27:35;27.20;99.90
14061;DHT22;7105;43.616;1.434;2022-07-23T14:30:03;27.30;99.90
14061;DHT22;7105;43.616;1.434;2022-07-23T14:32:29;27.20;99.90
14061;DHT22;7105;43.616;1.434;2022-07-23T14:34:55;27.20;99.90
14061;DHT22;7105;43.616;1.434;2022-07-23T14:37:20;27.30;99.90
14061;DHT22;7105;43.616;1.434;2022-07-23T14:39:46;27.50;99.90
14061;DHT22;7105;43.616;1.434;2022-07-23T14:42:12;27.50;99.90
14061;DHT22;7105;43.616;1.434;2022-07-23T14:44:38;27.90;99.90
14061;DHT22;7105;43.616;1.434;2022-07-23T14:47:05;27.60;99.90
14061;DHT22;7105;43.616;1.434;2022-07-23T14:49:32;27.30;99.90
14061;DHT22;7105;43.616;1.434;2022-07-23T14:51:58;27.30;99.90
14061;DHT22;7105;43.616;1.434;2022-07-23T14:54:25;27.60;99.90
14061;DHT22;7105;43.616;1.434;2022-07-23T14:56:55;27.90;99.90
14061;DHT22;7105;43.616;1.434;2022-07-23T14:59:21;27.90;99.90
14061;DHT22;7105;43.616;1.434;2022-07-23T15:01:47;27.70;99.90
14061;DHT22;7105;43.616;1.434;2022-07-23T15:04:13;27.90;99.90
14061;DHT22;7105;43.616;1.434;2022-07-23T15:06:38;28.00;99.90
14061;DHT22;7105;43.616;1.434;2022-07-23T15:09:05;28.00;99.90
14061;DHT22;7105;43.616;1.434;2022-07-23T15:11:31;28.30;99.90
14061;DHT22;7105;43.616;1.434;2022-07-23T15:14:00;28.20;99.90
14061;DHT22;7105;43.616;1.434;2022-07-23T15:16:26;27.90;99.90
14061;DHT22;7105;43.616;1.434;2022-07-23T15:18:51;27.90;99.90
14061;DHT22;7105;43.616;1.434;2022-07-23T15:21:17;28.00;99.90
14061;DHT22;7105;43.616;1.434;2022-07-23T15:23:43;28.20;99.90
14061;DHT22;7105;43.616;1.434;2022-07-23T15:26:08;28.10;99.90
14061;DHT22;7105;43.616;1.434;2022-07-23T15:28:35;28.00;99.90
14061;DHT22;7105;43.616;1.434;2022-07-23T15:31:01;27.90;99.90
14061;DHT22;7105;43.616;1.434;2022-07-23T15:33:27;28.10;99.90
14061;DHT22;7105;43.616;1.434;2022-07-23T15:35:53;27.90;99.90
14061;DHT22;7105;43.616;1.434;2022-07-23T15:38:21;27.60;99.90
14061;DHT22;7105;43.616;1.434;2022-07-23T15:40:47;27.90;99.90
14061;DHT22;7105;43.616;1.434;2022-07-23T15:43:13;28.10;99.90
14061;DHT22;7105;43.616;1.434;2022-07-23T15:45:40;28.40;99.90
14061;DHT22;7105;43.616;1.434;2022-07-23T15:48:06;28.10;99.90
14061;DHT22;7105;43.616;1.434;2022-07-23T15:50:32;28.00;99.90
14061;DHT22;7105;43.616;1.434;2022-07-23T15:52:58;28.00;99.90
14061;DHT22;7105;43.616;1.434;2022-07-23T15:55:24;28.00;99.90
14061;DHT22;7105;43.616;1.434;2022-07-23T15:57:50;28.10;99.90
14061;DHT22;7105;43.616;1.434;2022-07-23T16:00:16;28.00;99.90
14061;DHT22;7105;43.616;1.434;2022-07-23T16:02:42;28.30;99.90
14061;DHT22;7105;43.616;1.434;2022-07-23T16:05:08;28.40;99.90
14061;DHT22;7105;43.616;1.434;2022-07-23T16:07:34;28.20;99.90
14061;DHT22;7105;43.616;1.434;2022-07-23T16:10:04;28.40;99.90
14061;DHT22;7105;43.616;1.434;2022-07-23T16:12:30;28.30;99.90
14061;DHT22;7105;43.616;1.434;2022-07-23T16:14:55;28.40;99.90
14061;DHT22;7105;43.616;1.434;2022-07-23T16:17:21;28.50;99.90
14061;DHT22;7105;43.616;1.434;2022-07-23T16:19:47;28.40;99.90